Time;durP1;ratioP1;P1;durP2;ratioP2;P2;SDS_P1;SDS_P2;PMS_P1;PMS_P2;Temp;Humidity;BMP_temperature;BMP_pressure;BME280_temperature;BME280_humidity;BME280_pressure;Samples;Min_cycle;Max_cycle;Signal;HPM_P1;HPM_P2
2023/10/06 00:01:14;;;;;;;8.67;6.50;;;8.00;99.90;;;8.53;99.64;99044.78;10316515;28;20231;-67
2023/10/06 00:06:22;;;;;;;8.50;6.43;;;7.80;99.90;;;8.35;100.00;99040.63;10320611;28;20235;-66
2023/10/06 00:11:31;;;;;;;8.97;7.27;;;7.60;99.90;;;8.39;100.00;99037.63;10321215;28;20285;-67
2023/10/06 00:16:39;;;;;;;8.20;5.57;;;7.60;99.90;;;8.26;100.00;99037.31;10318408;28;20478;-67
2023/10/06 00:21:47;;;;;;;7.33;6.37;;;7.50;99.90;;;8.28;100.00;99036.69;10320849;28;20228;-67
2023/10/06 00:26:51;;;;;;;7.53;5.97;;;7.60;99.90;;;8.33;100.00;99035.44;10320775;28;20242;-67
2023/10/06 00:32:00;;;;;;;7.17;6.40;;;7.60;99.90;;;8.37;100.00;99041.66;10318837;28;20769;-66
2023/10/06 00:37:11;;;;;;;10.10;7.07;;;7.60;99.90;;;8.26;100.00;99039.84;10317557;28;20234;-66
2023/10/06 00:42:17;;;;;;;7.80;7.00;;;7.50;99.90;;;8.08;100.00;99036.66;10320934;28;20245;-67
2023/10/06 00:47:21;;;;;;;9.43;7.07;;;7.40;99.90;;;8.06;100.00;99043.25;10319509;28;20234;-66
2023/10/06 00:52:26;;;;;;;9.93;6.83;;;7.40;99.90;;;8.14;100.00;99044.81;10318111;28;20231;-66
2023/10/06 00:57:29;;;;;;;13.23;7.60;;;7.40;99.90;;;8.17;100.00;99031.44;10317044;28;20232;-66
2023/10/06 01:02:33;;;;;;;10.97;7.43;;;7.40;99.90;;;8.15;100.00;99027.88;10317934;28;20226;-66
2023/10/06 01:07:39;;;;;;;8.73;7.53;;;7.40;99.90;;;8.12;100.00;99025.94;10315978;28;20342;-67
2023/10/06 01:12:43;;;;;;;10.03;8.00;;;7.40;99.90;;;8.08;100.00;99026.47;10319676;28;21111;-66
2023/10/06 01:17:47;;;;;;;10.80;8.00;;;7.40;99.90;;;7.84;100.00;99018.50;10314943;28;20239;-66
2023/10/06 01:22:56;;;;;;;10.17;8.13;;;7.20;99.90;;;7.96;100.00;99010.16;10318140;28;20699;-67
2023/10/06 01:28:03;;;;;;;10.47;7.70;;;7.30;99.90;;;7.87;100.00;99006.03;10319664;28;20738;-66
2023/10/06 01:33:07;;;;;;;10.57;8.00;;;7.20;99.90;;;7.67;100.00;99013.63;10316250;28;20226;-66
2023/10/06 01:38:19;;;;;;;10.43;7.57;;;7.00;99.90;;;7.71;100.00;99014.78;10315492;28;20239;-66
2023/10/06 01:43:29;;;;;;;8.40;7.50;;;7.10;99.90;;;7.72;100.00;99007.25;10321756;28;20223;-66
2023/10/06 01:48:36;;;;;;;9.30;7.90;;;7.10;99.90;;;7.70;100.00;99000.25;10315742;28;20218;-66
2023/10/06 01:53:41;;;;;;;11.80;9.00;;;7.10;99.90;;;7.49;100.00;98997.63;10314993;28;20231;-67
2023/10/06 01:58:44;;;;;;;10.67;8.83;;;6.90;99.90;;;7.57;100.00;99001.72;10314952;28;20235;-67
2023/10/06 02:03:47;;;;;;;12.63;9.07;;;6.90;99.90;;;7.42;100.00;98996.19;10316285;28;20234;-67
2023/10/06 02:08:52;;;;;;;11.53;9.00;;;6.80;99.90;;;7.52;100.00;98995.34;10312458;28;20246;-67
2023/10/06 02:13:56;;;;;;;9.53;7.50;;;6.90;99.90;;;7.60;100.00;98994.34;10312605;28;20247;-67
2023/10/06 02:19:00;;;;;;;9.83;8.37;;;7.00;99.90;;;7.60;100.00;99002.00;10314523;28;20738;-66
2023/10/06 02:24:08;;;;;;;10.13;7.57;;;7.00;99.90;;;7.65;100.00;98993.13;10315874;28;20231;-66
2023/10/06 02:29:22;;;;;;;9.83;7.53;;;7.00;99.90;;;7.63;100.00;98999.72;10314752;28;20314;-65
2023/10/06 02:34:29;;;;;;;7.97;7.00;;;7.00;99.90;;;7.60;100.00;99006.19;10317000;28;20239;-66
2023/10/06 02:39:37;;;;;;;12.07;8.47;;;6.90;99.90;;;7.38;100.00;99000.88;10317172;28;20717;-67
2023/10/06 02:44:41;;;;;;;10.13;7.60;;;6.70;99.90;;;7.25;100.00;98992.94;10314582;28;20318;-67
2023/10/06 02:49:48;;;;;;;9.20;8.20;;;6.60;99.90;;;7.17;100.00;98999.88;10321632;28;20222;-67
2023/10/06 02:55:05;;;;;;;8.93;8.00;;;6.50;99.90;;;6.97;100.00;98993.03;10318121;28;20321;-66
2023/10/06 03:00:31;;;;;;;9.13;8.23;;;6.40;99.90;;;6.95;100.00;98992.00;10323178;28;20230;-66
2023/10/06 03:05:39;;;;;;;8.90;7.80;;;6.40;99.90;;;7.12;100.00;98981.66;10325782;28;20286;-67
2023/10/06 03:10:45;;;;;;;9.77;7.93;;;6.50;99.90;;;7.14;100.00;98986.91;10324214;28;20301;-65
2023/10/06 03:15:48;;;;;;;10.33;8.07;;;6.50;99.90;;;7.25;100.00;98987.88;10324202;28;20279;-67
2023/10/06 03:20:53;;;;;;;10.67;8.03;;;6.60;99.90;;;7.17;100.00;98988.06;10322932;28;20237;-66
2023/10/06 03:25:58;;;;;;;15.00;8.63;;;6.50;99.90;;;7.20;100.00;98978.16;10322910;28;20235;-66
2023/10/06 03:31:09;;;;;;;9.13;7.63;;;6.60;99.90;;;7.12;100.00;98980.78;10324046;28;20301;-66
2023/10/06 03:36:15;;;;;;;9.27;8.10;;;6.50;99.90;;;6.89;100.00;98983.81;10323524;28;20691;-67
2023/10/06 03:41:24;;;;;;;10.50;8.33;;;6.30;99.90;;;6.66;100.00;98977.56;10324693;28;20699;-66
2023/10/06 03:46:35;;;;;;;12.13;9.13;;;6.10;99.90;;;6.67;100.00;98984.47;10323691;28;20726;-65
2023/10/06 03:51:39;;;;;;;9.50;8.60;;;6.10;99.90;;;6.79;100.00;98983.78;10322339;28;20238;-65
2023/10/06 03:56:45;;;;;;;9.80;7.77;;;6.20;99.90;;;6.74;100.00;98991.84;10325698;28;20318;-66
2023/10/06 04:01:51;;;;;;;12.00;8.50;;;6.10;99.90;;;6.82;100.00;98994.22;10322195;28;20230;-67
2023/10/06 04:06:57;;;;;;;10.13;8.40;;;6.20;99.90;;;6.88;100.00;98979.50;10321775;28;20250;-66
2023/10/06 04:12:02;;;;;;;10.23;8.30;;;6.20;99.90;;;6.81;100.00;98977.16;10324804;28;20223;-67
2023/10/06 04:17:06;;;;;;;9.17;7.87;;;6.20;99.90;;;6.79;100.00;98963.44;10320866;28;20230;-66
2023/10/06 04:22:09;;;;;;;9.60;8.20;;;6.10;99.90;;;6.63;100.00;98962.06;10326105;28;20246;-66
2023/10/06 04:27:14;;;;;;;9.63;8.57;;;6.00;99.90;;;6.52;100.00;98953.50;10332946;28;20258;-66
2023/10/06 04:32:17;;;;;;;10.07;8.10;;;5.90;99.90;;;6.43;100.00;98962.78;10325517;28;20230;-67
2023/10/06 04:37:20;;;;;;;10.30;9.20;;;5.80;99.90;;;6.35;100.00;98955.22;10328879;28;20694;-64
2023/10/06 04:42:24;;;;;;;10.57;8.87;;;5.80;99.90;;;6.36;100.00;98954.50;10334579;28;20223;-66
2023/10/06 04:47:31;;;;;;;10.43;9.30;;;5.80;99.90;;;6.29;100.00;98953.91;10328764;28;20239;-64
2023/10/06 04:52:34;;;;;;;11.77;8.80;;;5.70;99.90;;;6.24;100.00;98965.31;10326629;28;20237;-64
2023/10/06 04:57:39;;;;;;;10.80;8.93;;;5.70;99.90;;;6.35;100.00;98960.31;10350570;28;20322;-65
2023/10/06 05:02:47;;;;;;;9.57;8.27;;;5.80;99.90;;;6.36;100.00;98960.47;10348947;28;20223;-67
2023/10/06 05:07:53;;;;;;;9.27;8.37;;;5.80;99.90;;;6.40;100.00;98954.91;10348788;28;20501;-64
2023/10/06 05:12:59;;;;;;;13.37;8.47;;;5.90;99.90;;;6.43;100.00;98956.84;10328548;28;20277;-65
2023/10/06 05:18:03;;;;;;;12.07;8.93;;;5.90;99.90;;;6.53;100.00;98955.28;10319797;28;20238;-67
2023/10/06 05:23:09;;;;;;;8.10;7.30;;;5.90;99.90;;;6.60;100.00;98960.91;10318803;28;20229;-66
2023/10/06 05:28:17;;;;;;;9.33;8.17;;;6.00;99.90;;;6.57;100.00;98970.78;10316560;28;20619;-66
2023/10/06 05:33:21;;;;;;;9.13;7.30;;;6.00;99.90;;;6.54;100.00;98979.91;10318646;28;20227;-66
2023/10/06 05:38:24;;;;;;;8.17;7.17;;;6.00;99.90;;;6.65;100.00;98968.19;10312717;28;20312;-65
2023/10/06 05:43:30;;;;;;;8.27;7.50;;;6.00;99.90;;;6.64;100.00;98963.88;10330970;28;20766;-65
2023/10/06 05:48:34;;;;;;;8.93;6.87;;;5.90;99.90;;;6.61;100.00;98972.81;10322455;28;20234;-69
2023/10/06 05:53:41;;;;;;;8.17;7.37;;;5.90;99.90;;;6.58;100.00;98968.41;10310626;28;20261;-65
2023/10/06 05:58:45;;;;;;;9.77;7.53;;;5.90;99.90;;;6.69;100.00;98989.66;10313324;28;20231;-65
2023/10/06 06:03:51;;;;;;;10.17;8.33;;;6.00;99.90;;;6.82;100.00;98994.22;10321069;28;20653;-65
2023/10/06 06:08:55;;;;;;;8.57;7.50;;;6.10;99.90;;;7.01;100.00;99007.81;10333168;28;20330;-63
2023/10/06 06:14:00;;;;;;;8.97;8.03;;;6.20;99.90;;;7.26;100.00;99015.06;10342063;28;20230;-64
2023/10/06 06:19:20;;;;;;;9.13;8.20;;;6.50;99.90;;;7.74;98.90;99009.94;10334948;28;20657;-66
2023/10/06 06:24:23;;;;;;;9.03;8.23;;;6.90;99.90;;;8.20;97.56;99013.88;10319955;28;20234;-66
2023/10/06 06:29:29;;;;;;;8.97;7.93;;;7.30;99.90;;;8.75;93.09;99003.22;10314759;28;20242;-66
2023/10/06 06:34:32;;;;;;;9.17;8.27;;;7.70;99.90;;;9.38;91.10;99014.31;10313955;28;20237;-67
2023/10/06 06:39:37;;;;;;;10.90;8.83;;;8.10;99.90;;;9.67;89.96;99008.09;10310309;28;20624;-65
2023/10/06 06:44:47;;;;;;;9.93;7.30;;;8.60;99.90;;;9.88;88.22;99009.81;10315523;28;20237;-66
2023/10/06 06:49:51;;;;;;;8.40;7.50;;;8.80;99.90;;;10.11;88.19;99003.03;10326370;28;20238;-65
2023/10/06 06:54:54;;;;;;;10.40;9.15;;;9.00;99.90;;;10.47;84.77;98989.66;10306122;28;20234;-65
2023/10/06 06:59:58;;;;;;;9.38;8.38;;;9.40;99.90;;;10.45;84.88;98992.88;10308069;28;20235;-68
2023/10/06 07:05:01;;;;;;;11.68;8.77;;;9.30;99.90;;;10.54;84.23;98997.00;10312579;28;20235;-66
2023/10/06 07:10:06;;;;;;;10.98;8.43;;;9.60;99.90;;;11.10;81.17;98996.88;10307541;28;20326;-66
2023/10/06 07:15:15;;;;;;;9.82;7.28;;;10.00;99.90;;;11.38;81.78;98983.53;10309678;28;20242;-66
2023/10/06 07:20:23;;;;;;;9.32;8.32;;;10.40;99.90;;;11.63;79.87;98987.06;10311528;28;20237;-67
2023/10/06 07:25:28;;;;;;;9.15;8.05;;;10.60;99.90;;;12.00;77.79;98983.69;10312814;28;20329;-65
2023/10/06 07:30:34;;;;;;;8.85;7.95;;;11.10;99.90;;;12.10;78.54;98988.63;10320020;28;20813;-64
2023/10/06 07:35:41;;;;;;;10.05;7.63;;;11.20;99.90;;;12.29;78.99;98980.56;10319188;28;20265;-67
2023/10/06 07:40:45;;;;;;;9.45;8.35;;;11.30;99.90;;;12.49;77.52;98989.59;10314216;28;20223;-65
2023/10/06 07:45:50;;;;;;;9.57;7.88;;;11.60;99.90;;;12.72;78.32;98986.91;10315617;28;20231;-68
2023/10/06 07:51:04;;;;;;;10.52;7.85;;;11.90;99.90;;;13.16;76.28;98975.22;10319295;28;20223;-67
2023/10/06 07:56:08;;;;;;;9.77;7.65;;;12.30;99.90;;;13.48;75.40;98974.75;10317192;28;20223;-66
2023/10/06 08:01:13;;;;;;;10.85;7.60;;;12.60;99.90;;;13.80;75.54;98979.34;10318150;28;20239;-66
2023/10/06 08:06:17;;;;;;;10.63;8.25;;;13.00;99.90;;;13.91;75.53;98970.63;10319390;28;20332;-66
2023/10/06 08:11:20;;;;;;;9.00;8.10;;;13.20;99.90;;;14.30;75.14;98972.97;10319903;28;20235;-66
2023/10/06 08:16:30;;;;;;;9.00;8.10;;;13.40;99.90;;;14.64;73.33;98970.75;10317267;28;20296;-66
2023/10/06 08:21:33;;;;;;;11.38;8.43;;;14.00;99.90;;;14.89;72.39;98969.63;10324070;28;20668;-66
2023/10/06 08:26:37;;;;;;;9.43;7.90;;;14.30;99.90;;;15.24;72.50;98969.94;10320987;28;20222;-69
2023/10/06 08:31:42;;;;;;;7.75;7.07;;;14.60;99.90;;;15.63;70.39;98977.25;10314819;28;20245;-67
2023/10/06 08:36:45;;;;;;;10.50;7.97;;;14.90;99.90;;;15.85;70.08;98969.00;10315186;28;20224;-66
2023/10/06 08:41:52;;;;;;;9.55;8.50;;;15.10;99.90;;;16.20;68.74;98958.91;10319096;28;20231;-65
2023/10/06 08:46:57;;;;;;;11.50;8.68;;;15.50;99.90;;;16.29;66.76;98960.19;10317650;28;20227;-68
2023/10/06 08:52:13;;;;;;;10.35;8.20;;;15.70;99.90;;;16.47;67.05;98940.47;10318395;28;20262;-65
2023/10/06 08:57:16;;;;;;;10.45;8.25;;;15.90;99.90;;;16.55;66.16;98946.94;10323551;28;20231;-67
2023/10/06 09:02:21;;;;;;;10.30;8.45;;;16.00;99.90;;;16.75;66.96;98935.03;10325606;28;20230;-65
2023/10/06 09:07:24;;;;;;;8.82;7.18;;;16.20;99.90;;;17.13;65.31;98942.94;10327191;28;20341;-66
2023/10/06 09:12:31;;;;;;;10.38;7.93;;;16.60;99.90;;;17.40;66.13;98948.53;10319598;28;20227;-67
2023/10/06 09:17:36;;;;;;;10.18;7.53;;;16.80;99.90;;;17.84;65.92;98948.06;10320959;28;20231;-67
2023/10/06 09:22:46;;;;;;;12.82;7.85;;;17.20;99.90;;;18.17;64.35;98943.53;10318731;28;20642;-67
2023/10/06 09:27:49;;;;;;;8.98;6.82;;;17.50;99.90;;;18.19;64.52;98947.06;10315904;28;20235;-68
2023/10/06 09:33:02;;;;;;;12.32;7.85;;;17.50;99.90;;;18.37;64.50;98939.25;10316030;28;20229;-66
2023/10/06 09:38:15;;;;;;;10.68;7.55;;;17.80;99.90;;;18.60;63.75;98936.72;10312435;28;20719;-65
2023/10/06 09:43:19;;;;;;;9.73;7.15;;;18.00;99.90;;;18.64;64.10;98920.53;10310829;28;20718;-66
2023/10/06 09:48:33;;;;;;;12.02;7.47;;;18.00;99.90;;;18.61;64.84;98934.22;10315105;28;20693;-65
2023/10/06 09:53:38;;;;;;;12.32;6.93;;;18.00;99.90;;;18.98;62.74;98924.56;10317348;28;20227;-65
2023/10/06 09:58:48;;;;;;;11.60;7.03;;;18.30;99.90;;;19.01;62.36;98916.91;10317245;28;20318;-66
2023/10/06 10:03:55;;;;;;;9.95;7.68;;;18.30;99.90;;;19.19;61.27;98921.94;10312285;28;20239;-69
2023/10/06 10:08:58;;;;;;;10.85;6.57;;;18.60;99.90;;;19.52;59.57;98914.63;10305579;28;20222;-64
2023/10/06 10:14:26;;;;;;;7.63;5.75;;;18.90;99.90;;;19.64;58.28;98912.47;10310724;28;20238;-68
2023/10/06 10:19:32;;;;;;;10.95;6.50;;;19.10;99.90;;;19.58;57.98;98907.06;10314375;28;20629;-67
2023/10/06 10:24:36;;;;;;;10.52;6.22;;;19.00;99.90;;;19.69;57.59;98900.63;10310218;28;20242;-70
2023/10/06 10:29:42;;;;;;;12.07;6.40;;;19.00;99.90;;;19.63;57.51;98900.34;10309302;28;20226;-67
2023/10/06 10:35:14;;;;;;;10.43;6.55;;;19.00;99.90;;;19.88;57.24;98896.97;10309874;28;20227;-67
2023/10/06 10:40:21;;;;;;;10.15;6.30;;;19.20;99.90;;;20.06;57.16;98886.41;10307518;28;20329;-66
2023/10/06 10:45:30;;;;;;;8.45;5.78;;;19.30;99.90;;;20.14;56.60;98884.06;10309909;28;20317;-67
2023/10/06 10:50:59;;;;;;;10.75;6.97;;;19.20;99.90;;;20.17;56.20;98877.28;10313265;28;20317;-67
2023/10/06 10:56:03;;;;;;;8.65;6.28;;;19.20;99.90;;;20.07;56.86;98864.78;10307602;28;20226;-69
2023/10/06 11:01:29;;;;;;;9.15;5.80;;;19.30;99.90;;;20.34;56.12;98864.00;10312131;28;20706;-67
2023/10/06 11:06:37;;;;;;;10.10;6.13;;;19.60;99.90;;;20.48;55.67;98853.22;10312026;28;20226;-71
2023/10/06 11:11:40;;;;;;;8.95;5.82;;;19.60;99.90;;;20.57;53.95;98839.72;10306505;28;20237;-66
2023/10/06 11:16:46;;;;;;;9.73;6.05;;;19.60;99.50;;;20.44;54.02;98828.00;10295208;28;20291;-67
2023/10/06 11:21:53;;;;;;;9.60;5.70;;;19.70;99.40;;;20.62;54.71;98822.56;10305720;28;20643;-67
2023/10/06 11:26:56;;;;;;;7.43;5.70;;;20.00;99.40;;;20.88;54.72;98814.72;10309215;28;20667;-66
2023/10/06 11:32:01;;;;;;;8.05;5.50;;;20.00;99.80;;;20.81;54.32;98812.78;10314799;28;20246;-67
2023/10/06 11:37:08;;;;;;;9.25;6.20;;;20.00;99.40;;;20.86;53.07;98799.09;10309009;28;20234;-70
2023/10/06 11:42:38;;;;;;;8.02;5.10;;;20.00;98.60;;;20.96;52.85;98791.56;10301084;28;20628;-66
2023/10/06 11:47:41;;;;;;;7.93;5.03;;;20.10;98.80;;;20.62;52.56;98785.31;10314767;28;20227;-67
2023/10/06 11:52:46;;;;;;;7.43;4.72;;;19.80;98.00;;;20.73;53.50;98785.66;10317545;28;20243;-68
2023/10/06 11:57:51;;;;;;;7.65;4.80;;;19.90;98.60;;;20.63;53.55;98785.38;10323668;28;20223;-70
2023/10/06 12:02:54;;;;;;;7.38;5.45;;;19.80;99.00;;;20.64;53.59;98781.94;10319896;28;20234;-67
2023/10/06 12:08:08;;;;;;;7.43;5.75;;;19.80;98.80;;;20.62;51.49;98772.31;10317234;28;20419;-68
2023/10/06 12:13:12;;;;;;;7.53;5.03;;;19.80;97.00;;;20.62;52.66;98769.72;10316477;28;20231;-67
2023/10/06 12:18:16;;;;;;;8.35;5.20;;;19.80;97.80;;;20.57;52.06;98772.16;10316071;28;20234;-67
2023/10/06 12:23:20;;;;;;;7.53;5.55;;;19.70;97.30;;;20.59;50.62;98770.50;10321205;28;20250;-67
2023/10/06 12:28:25;;;;;;;8.10;4.80;;;19.70;96.20;;;20.62;50.05;98767.13;10320284;28;20242;-68
2023/10/06 12:33:29;;;;;;;6.68;4.68;;;19.80;95.70;;;20.72;50.41;98760.50;10329641;28;20730;-68
2023/10/06 12:38:33;;;;;;;6.82;5.13;;;19.90;96.00;;;20.68;48.29;98755.19;10328546;28;20242;-68
2023/10/06 12:43:36;;;;;;;7.57;5.18;;;19.90;94.40;;;20.79;48.09;98759.88;10329083;28;20687;-67
2023/10/06 12:48:40;;;;;;;7.63;4.88;;;20.10;93.90;;;21.05;45.92;98756.34;10330399;28;20244;-68
2023/10/06 12:53:44;;;;;;;8.70;5.65;;;20.30;92.50;;;20.81;47.32;98747.81;10335198;28;20242;-68
2023/10/06 12:58:47;;;;;;;7.07;4.93;;;20.10;93.30;;;20.95;47.54;98735.25;10334226;28;20308;-68
2023/10/06 13:03:51;;;;;;;8.00;5.10;;;20.20;93.50;;;20.90;48.48;98745.50;10325988;28;20234;-68
2023/10/06 13:08:55;;;;;;;7.10;5.13;;;20.10;94.10;;;21.02;47.88;98740.66;10319799;28;20219;-68
2023/10/06 13:14:02;;;;;;;6.63;4.80;;;20.20;93.70;;;20.81;47.71;98740.88;10316436;28;20635;-68
2023/10/06 13:19:06;;;;;;;7.90;4.90;;;20.00;93.30;;;20.83;48.30;98740.91;10307756;28;20223;-67
2023/10/06 13:24:13;;;;;;;7.85;5.43;;;20.00;93.80;;;20.99;47.17;98726.69;10306841;28;20226;-67
2023/10/06 13:29:19;;;;;;;7.78;5.45;;;20.30;92.90;;;20.85;47.46;98726.25;10326100;28;20606;-67
2023/10/06 13:34:23;;;;;;;8.27;5.47;;;20.00;93.20;;;20.54;48.13;98732.22;10316489;28;20657;-67
2023/10/06 13:39:28;;;;;;;6.38;5.00;;;19.80;93.40;;;20.57;47.97;98724.53;10318618;28;20241;-67
2023/10/06 13:44:31;;;;;;;6.35;4.88;;;19.70;93.30;;;20.54;47.70;98711.44;10317647;28;20231;-67
2023/10/06 13:49:34;;;;;;;7.05;5.40;;;19.70;93.00;;;20.33;48.39;98715.09;10318126;28;20231;-67
2023/10/06 13:54:39;;;;;;;6.20;4.82;;;19.50;94.00;;;20.28;48.28;98713.19;10320492;28;20273;-67
2023/10/06 13:59:42;;;;;;;6.82;4.75;;;19.40;93.40;;;20.11;47.55;98707.44;10318884;28;20238;-67
2023/10/06 14:04:46;;;;;;;7.50;5.45;;;19.40;92.80;;;20.14;47.84;98703.22;10321302;28;21098;-67
2023/10/06 14:09:51;;;;;;;7.63;5.85;;;19.50;92.90;;;20.22;47.28;98706.94;10325579;28;20238;-67
2023/10/06 14:14:59;;;;;;;8.32;5.57;;;19.50;92.50;;;20.20;47.29;98687.88;10322934;28;20230;-67
2023/10/06 14:20:10;;;;;;;7.28;5.22;;;19.40;92.40;;;20.23;47.33;98685.38;10322251;28;20285;-68
2023/10/06 14:25:21;;;;;;;8.25;5.57;;;19.50;92.30;;;20.18;47.19;98688.66;10318784;28;20614;-67
2023/10/06 14:30:26;;;;;;;7.13;5.30;;;19.30;92.40;;;20.09;47.88;98678.84;10309770;28;20257;-67
2023/10/06 14:35:45;;;;;;;7.57;5.15;;;19.20;93.10;;;19.94;47.67;98684.38;10306606;28;20230;-67
2023/10/06 14:46:16;;;;;;;8.18;5.28;;;19.00;92.70;;;19.84;48.36;98676.28;10311181;28;20727;-67
2023/10/06 14:51:20;;;;;;;7.32;5.60;;;19.00;93.40;;;19.75;48.95;98672.53;10300895;28;20226;-66
2023/10/06 14:56:26;;;;;;;8.43;4.93;;;18.90;93.50;;;19.71;48.51;98670.66;10295354;28;20246;-67
2023/10/06 15:01:29;;;;;;;6.78;5.57;;;18.90;93.40;;;19.66;48.64;98677.41;10316544;28;20230;-66
2023/10/06 15:06:33;;;;;;;6.25;5.13;;;18.80;93.20;;;19.69;49.46;98667.13;10308492;28;20231;-67
2023/10/06 15:11:40;;;;;;;7.32;5.22;;;18.80;94.60;;;19.69;51.73;98663.66;10298704;28;20730;-66
2023/10/06 15:16:43;;;;;;;7.45;5.28;;;18.80;96.50;;;19.65;53.55;98665.25;10311536;28;20285;-67
2023/10/06 15:21:47;;;;;;;7.35;5.80;;;18.80;97.90;;;19.61;55.47;98672.88;10316081;28;20344;-68
2023/10/06 15:26:51;;;;;;;7.88;5.63;;;18.70;99.20;;;19.58;58.10;98658.94;10311533;28;20636;-70
2023/10/06 15:31:55;;;;;;;9.15;5.40;;;18.60;99.90;;;19.55;60.07;98663.16;10316564;28;20617;-67
2023/10/06 15:36:59;;;;;;;7.80;5.50;;;18.50;99.90;;;19.43;61.52;98657.53;10310086;28;20266;-66
2023/10/06 15:42:04;;;;;;;7.25;5.93;;;18.50;99.90;;;19.27;62.82;98664.78;10312261;28;20607;-70
2023/10/06 15:47:09;;;;;;;7.45;5.82;;;18.30;99.90;;;19.16;63.68;98666.09;10300947;28;20748;-67
2023/10/06 15:52:13;;;;;;;7.53;5.57;;;18.20;99.90;;;19.04;65.17;98663.06;10309127;28;20290;-67
2023/10/06 15:57:18;;;;;;;8.82;5.65;;;18.10;99.90;;;18.89;65.83;98664.28;10316054;28;20616;-67
2023/10/06 16:02:23;;;;;;;7.25;5.38;;;17.90;99.90;;;18.73;66.62;98661.88;10312975;28;20230;-66
2023/10/06 16:07:27;;;;;;;6.30;5.35;;;17.70;99.90;;;18.56;67.62;98674.19;10310403;28;20327;-66
2023/10/06 16:12:32;;;;;;;7.78;5.50;;;17.60;99.90;;;18.35;69.33;98676.84;10311469;28;20234;-66
2023/10/06 16:17:35;;;;;;;7.43;5.68;;;17.40;99.90;;;18.19;70.30;98675.31;10304949;28;20238;-66
2023/10/06 16:22:39;;;;;;;7.97;5.80;;;17.30;99.90;;;18.07;71.73;98689.50;10296346;28;20227;-66
2023/10/06 16:27:43;;;;;;;6.28;5.53;;;17.20;99.90;;;17.94;71.96;98691.59;10313428;28;20274;-67
2023/10/06 16:32:46;;;;;;;8.60;6.05;;;17.00;99.90;;;17.86;72.66;98694.66;10302859;28;20227;-66
2023/10/06 16:37:50;;;;;;;9.10;5.85;;;16.80;99.90;;;17.58;74.01;98690.88;10310573;28;20235;-67
2023/10/06 16:42:54;;;;;;;9.13;5.75;;;16.60;99.90;;;17.39;75.02;98684.00;10304377;28;20794;-67
2023/10/06 16:47:57;;;;;;;8.70;6.63;;;16.40;99.90;;;17.15;77.51;98682.94;10307371;28;20226;-66
2023/10/06 16:53:01;;;;;;;8.75;6.45;;;16.20;99.90;;;16.98;78.37;98683.06;10307067;28;20231;-67
2023/10/06 16:58:05;;;;;;;8.65;6.35;;;16.10;99.90;;;16.95;79.66;98690.69;10323544;28;20738;-68
2023/10/06 17:03:09;;;;;;;9.32;6.63;;;16.00;99.90;;;16.81;79.69;98702.09;10311425;28;20239;-66
2023/10/06 17:08:13;;;;;;;8.65;7.07;;;15.90;99.90;;;16.75;79.28;98706.94;10310253;28;20227;-66
2023/10/06 17:13:18;;;;;;;9.77;6.93;;;15.80;99.90;;;16.67;79.83;98717.78;10310073;28;20359;-67
2023/10/06 17:18:22;;;;;;;8.50;6.72;;;15.70;99.90;;;16.49;81.65;98722.09;10312066;28;20234;-66
2023/10/06 17:23:25;;;;;;;7.65;5.80;;;15.60;99.90;;;16.39;82.02;98733.63;10315067;28;20243;-66
2023/10/06 17:28:30;;;;;;;9.88;6.30;;;15.50;99.90;;;16.30;81.26;98730.63;10321787;28;20645;-66
2023/10/06 17:33:33;;;;;;;8.07;6.13;;;15.40;99.90;;;16.16;81.57;98740.25;10313252;28;20230;-66
2023/10/06 17:38:36;;;;;;;9.77;6.30;;;15.20;99.90;;;16.12;82.48;98742.63;10309793;28;20219;-65
2023/10/06 17:43:41;;;;;;;8.45;5.82;;;15.20;99.90;;;16.01;83.57;98743.78;10304956;28;20235;-65
2023/10/06 17:48:46;;;;;;;9.63;7.50;;;15.10;99.90;;;15.95;84.58;98749.53;10306209;28;20606;-66
2023/10/06 17:53:51;;;;;;;13.55;12.15;;;15.00;99.90;;;15.96;85.95;98746.13;10317991;28;20223;-66
2023/10/06 17:58:55;;;;;;;15.02;13.63;;;14.90;99.90;;;15.85;85.93;98744.69;10315310;28;20246;-66
2023/10/06 18:03:58;;;;;;;12.35;8.88;;;14.90;99.90;;;15.71;87.18;98755.22;10318039;28;20231;-66
2023/10/06 18:09:03;;;;;;;11.40;10.15;;;14.80;99.90;;;15.66;86.48;98761.78;10323990;28;20230;-66
2023/10/06 18:14:08;;;;;;;16.38;14.68;;;14.70;99.90;;;15.55;87.81;98760.34;10318904;28;20226;-66
2023/10/06 18:19:11;;;;;;;25.25;22.58;;;14.60;99.90;;;15.56;87.55;98759.53;10320929;28;20293;-66
2023/10/06 18:24:14;;;;;;;13.63;10.98;;;14.50;99.90;;;15.52;87.24;98762.75;10320220;28;20313;-66
2023/10/06 18:29:22;;;;;;;12.15;9.70;;;14.50;99.90;;;15.29;88.03;98770.16;10322044;28;20231;-66
2023/10/06 18:34:25;;;;;;;14.52;10.00;;;14.40;99.90;;;15.23;87.94;98780.16;10315302;28;20238;-66
2023/10/06 18:39:29;;;;;;;10.30;9.18;;;14.30;99.90;;;15.12;88.51;98778.69;10313808;28;20250;-66
2023/10/06 18:44:34;;;;;;;12.02;8.35;;;14.20;99.90;;;15.08;88.48;98780.22;10321415;28;21001;-66
2023/10/06 18:49:37;;;;;;;16.13;12.40;;;14.20;99.90;;;14.97;88.80;98783.00;10323741;28;20602;-66
2023/10/06 18:54:40;;;;;;;11.43;8.88;;;14.10;99.90;;;14.79;88.49;98783.78;10317951;28;20250;-65
2023/10/06 18:59:45;;;;;;;12.52;9.07;;;13.90;99.90;;;14.72;88.83;98789.38;10316543;28;20234;-66
2023/10/06 19:04:50;;;;;;;10.45;8.52;;;13.80;99.90;;;14.58;88.72;98780.00;10313264;28;20578;-66
2023/10/06 19:09:54;;;;;;;10.48;8.52;;;13.70;99.90;;;14.48;89.73;98787.94;10322864;28;20921;-66
2023/10/06 19:14:58;;;;;;;10.00;7.93;;;13.50;99.90;;;14.32;89.27;98786.19;10317808;28;20226;-66
2023/10/06 19:20:03;;;;;;;11.50;8.15;;;13.40;99.90;;;14.11;90.12;98791.00;10314535;28;20234;-66
2023/10/06 19:25:09;;;;;;;12.48;7.82;;;13.20;99.90;;;13.97;90.85;98793.66;10320633;28;20239;-66
2023/10/06 19:30:15;;;;;;;10.77;7.88;;;13.00;99.90;;;13.79;91.46;98792.53;10331108;28;20227;-66
2023/10/06 19:35:18;;;;;;;9.63;8.07;;;12.80;99.90;;;13.63;91.60;98793.31;10331972;28;20626;-66
2023/10/06 19:40:22;;;;;;;10.00;7.57;;;12.70;99.90;;;13.59;90.65;98798.16;10322868;28;20687;-66
2023/10/06 19:45:26;;;;;;;13.25;8.15;;;12.60;99.90;;;13.38;92.50;98808.03;10340843;28;20297;-66
2023/10/06 19:50:29;;;;;;;13.23;8.23;;;12.50;99.90;;;13.37;92.53;98807.16;10331486;28;20242;-66
2023/10/06 19:55:32;;;;;;;11.55;9.27;;;12.40;99.90;;;13.19;92.98;98806.88;10329325;28;20243;-66
2023/10/06 20:00:38;;;;;;;12.02;9.10;;;12.20;99.90;;;12.97;94.28;98803.75;10328977;28;20642;-66
2023/10/06 20:05:41;;;;;;;10.07;8.48;;;12.10;99.90;;;12.97;93.83;98803.75;10332871;28;20342;-66
2023/10/06 20:10:44;;;;;;;11.45;8.60;;;12.00;99.90;;;12.94;93.23;98808.72;10329828;28;20326;-66
2023/10/06 20:15:49;;;;;;;12.82;8.40;;;12.00;99.90;;;12.81;93.64;98805.34;10317303;28;20255;-66
2023/10/06 20:20:52;;;;;;;11.23;7.80;;;11.90;99.90;;;12.53;94.20;98805.28;10317014;28;20226;-66
2023/10/06 20:25:55;;;;;;;10.30;7.30;;;11.70;99.90;;;12.49;94.17;98810.09;10321500;28;20235;-66
2023/10/06 20:31:03;;;;;;;10.30;7.40;;;11.60;99.90;;;12.39;94.44;98817.19;10314879;28;20235;-66
2023/10/06 20:36:07;;;;;;;9.07;7.60;;;11.50;99.90;;;12.40;93.53;98813.84;10322454;28;20226;-67
2023/10/06 20:41:10;;;;;;;11.18;7.55;;;11.50;99.90;;;12.29;93.99;98819.06;10327532;28;20231;-66
2023/10/06 20:46:15;;;;;;;9.60;7.47;;;11.40;99.90;;;12.24;93.78;98810.16;10318990;28;20601;-66
2023/10/06 20:51:18;;;;;;;9.20;7.10;;;11.30;99.90;;;11.89;95.33;98817.28;10317945;28;20235;-65
2023/10/06 20:56:22;;;;;;;9.77;6.95;;;11.10;99.90;;;11.93;95.00;98813.25;10317571;28;20235;-65
2023/10/06 21:01:30;;;;;;;8.65;6.40;;;11.10;99.90;;;11.92;95.27;98814.03;10316874;28;20232;-66
2023/10/06 21:06:34;;;;;;;10.98;7.75;;;11.00;99.90;;;11.75;95.38;98822.22;10316339;28;20226;-67
2023/10/06 21:11:39;;;;;;;10.23;7.82;;;10.90;99.90;;;11.64;95.96;98817.25;10315958;28;20254;-65
2023/10/06 21:16:44;;;;;;;9.88;7.65;;;10.80;99.90;;;11.53;95.29;98814.75;10318709;28;20245;-66